createdAt,value
2023-03-23T00:00:02.000Z,285.02
2023-03-23T00:02:08.000Z,285.09
2023-03-23T00:03:34.000Z,285.02
2023-03-23T00:05:41.000Z,285.21
2023-03-23T00:07:08.000Z,285.21
2023-03-23T00:09:14.000Z,285.21
2023-03-23T00:12:05.000Z,285.21
2023-03-23T00:13:32.000Z,285.27
2023-03-23T00:15:38.000Z,285.27
2023-03-23T00:17:05.000Z,285.27
2023-03-23T00:19:11.000Z,285.34
2023-03-23T00:20:37.000Z,285.27
2023-03-23T00:22:43.000Z,285.27
2023-03-23T00:24:10.000Z,285.27
2023-03-23T00:26:16.000Z,285.27
2023-03-23T00:27:42.000Z,285.27
2023-03-23T00:29:48.000Z,285.34
2023-03-23T00:31:15.000Z,285.27
2023-03-23T00:33:21.000Z,285.4
2023-03-23T00:34:48.000Z,285.46
2023-03-23T00:36:54.000Z,285.34
2023-03-23T00:38:20.000Z,285.4
2023-03-23T00:40:26.000Z,285.4
2023-03-23T00:41:53.000Z,285.34
2023-03-23T00:43:59.000Z,285.4
2023-03-23T00:45:25.000Z,285.34
2023-03-23T00:47:31.000Z,285.34
2023-03-23T00:50:23.000Z,285.21
2023-03-23T00:52:03.000Z,285.21
2023-03-23T00:54:09.000Z,285.21
2023-03-23T00:55:35.000Z,285.15
2023-03-23T00:57:41.000Z,285.15
2023-03-23T00:59:08.000Z,285.09
2023-03-23T01:01:14.000Z,285.09
2023-03-23T01:02:40.000Z,285.02
2023-03-23T01:04:47.000Z,285.02
2023-03-23T01:06:13.000Z,284.96
2023-03-23T01:08:19.000Z,284.9
2023-03-23T01:09:46.000Z,284.9
2023-03-23T01:11:52.000Z,285.02
2023-03-23T01:13:18.000Z,284.96
2023-03-23T01:15:25.000Z,284.9
2023-03-23T01:16:51.000Z,284.9
2023-03-23T01:18:57.000Z,284.84
2023-03-23T01:20:24.000Z,284.9
2023-03-23T01:22:30.000Z,284.96
2023-03-23T01:23:56.000Z,284.9
2023-03-23T01:26:03.000Z,284.9
2023-03-23T01:28:54.000Z,284.9
2023-03-23T01:30:21.000Z,284.9
2023-03-23T01:32:27.000Z,284.96
2023-03-23T01:33:54.000Z,284.96
2023-03-23T01:36:00.000Z,284.96
2023-03-23T01:37:27.000Z,285.02
2023-03-23T01:39:33.000Z,285.02
2023-03-23T01:41:00.000Z,285.02
2023-03-23T01:43:06.000Z,284.96
2023-03-23T01:44:32.000Z,285.02
2023-03-23T01:46:38.000Z,285.09
2023-03-23T01:48:05.000Z,285.09
2023-03-23T01:50:11.000Z,284.96
2023-03-23T01:51:38.000Z,284.96
2023-03-23T01:53:46.000Z,284.9
2023-03-23T01:55:12.000Z,284.9
2023-03-23T01:57:18.000Z,284.9
2023-03-23T01:58:49.000Z,284.9
2023-03-23T02:00:55.000Z,284.96
2023-03-23T02:02:21.000Z,285.02
2023-03-23T02:04:27.000Z,285.02
2023-03-23T02:07:19.000Z,284.9
2023-03-23T02:08:45.000Z,284.9
2023-03-23T02:10:51.000Z,284.9
2023-03-23T02:12:18.000Z,284.84
2023-03-23T02:14:24.000Z,284.77
2023-03-23T02:15:51.000Z,284.71
2023-03-23T02:17:57.000Z,284.71
2023-03-23T02:19:24.000Z,284.65
2023-03-23T02:21:30.000Z,284.65
2023-03-23T02:22:57.000Z,284.65
2023-03-23T02:25:03.000Z,284.65
2023-03-23T02:26:29.000Z,284.65
2023-03-23T02:28:35.000Z,284.77
2023-03-23T02:30:02.000Z,284.77
2023-03-23T02:32:08.000Z,284.71
2023-03-23T02:33:35.000Z,284.71
2023-03-23T02:35:41.000Z,284.71
2023-03-23T02:37:08.000Z,284.65
2023-03-23T02:39:14.000Z,284.65
2023-03-23T02:40:41.000Z,284.59
2023-03-23T02:42:47.000Z,284.59
2023-03-23T02:45:38.000Z,284.59
2023-03-23T02:47:05.000Z,284.59
2023-03-23T02:49:12.000Z,284.59
2023-03-23T02:50:38.000Z,284.59
2023-03-23T02:52:44.000Z,284.71
2023-03-23T02:54:11.000Z,284.65
2023-03-23T02:56:17.000Z,284.65
2023-03-23T02:57:44.000Z,284.65
2023-03-23T02:59:50.000Z,284.65
2023-03-23T03:01:16.000Z,284.65
2023-03-23T03:03:23.000Z,284.65
2023-03-23T03:04:50.000Z,284.77
2023-03-23T03:06:56.000Z,284.71
2023-03-23T03:08:23.000Z,284.77
2023-03-23T03:10:30.000Z,284.71
2023-03-23T03:11:56.000Z,284.65
2023-03-23T03:14:02.000Z,284.65
2023-03-23T03:15:29.000Z,284.59
2023-03-23T03:17:35.000Z,284.59
2023-03-23T03:19:02.000Z,284.52
2023-03-23T03:21:08.000Z,284.52
2023-03-23T03:23:59.000Z,284.4
2023-03-23T03:25:26.000Z,284.46
2023-03-23T03:27:32.000Z,284.46
2023-03-23T03:28:59.000Z,284.4
2023-03-23T03:31:05.000Z,284.4
2023-03-23T03:32:32.000Z,284.34
2023-03-23T03:34:38.000Z,284.34
2023-03-23T03:36:04.000Z,284.34
2023-03-23T03:38:11.000Z,284.34
2023-03-23T03:39:37.000Z,284.34
2023-03-23T03:41:44.000Z,284.27
2023-03-23T03:43:10.000Z,284.21
2023-03-23T03:45:16.000Z,284.15
2023-03-23T03:46:43.000Z,284.21
2023-03-23T03:48:49.000Z,284.15
2023-03-23T03:50:16.000Z,284.15
2023-03-23T03:52:22.000Z,284.09
2023-03-23T03:53:49.000Z,284.02
2023-03-23T03:55:55.000Z,283.9
2023-03-23T03:57:21.000Z,283.9
2023-03-23T03:59:28.000Z,283.77
2023-03-23T04:02:19.000Z,283.65
2023-03-23T04:03:46.000Z,283.59
2023-03-23T04:05:52.000Z,283.52
2023-03-23T04:07:23.000Z,283.46
2023-03-23T04:09:29.000Z,283.4
2023-03-23T04:10:56.000Z,283.4
2023-03-23T04:13:02.000Z,283.34
2023-03-23T04:14:28.000Z,283.4
2023-03-23T04:16:35.000Z,283.34
2023-03-23T04:18:01.000Z,283.21
2023-03-23T04:20:08.000Z,283.21
2023-03-23T04:21:34.000Z,283.27
2023-03-23T04:23:40.000Z,283.15
2023-03-23T04:25:07.000Z,283.15
2023-03-23T04:27:14.000Z,283.15
2023-03-23T04:28:40.000Z,283.15
2023-03-23T04:30:47.000Z,283.15
2023-03-23T04:32:14.000Z,283.15
2023-03-23T04:34:21.000Z,283.21
2023-03-23T04:35:48.000Z,283.15
2023-03-23T04:37:54.000Z,283.15
2023-03-23T04:40:45.000Z,283.15
2023-03-23T04:42:12.000Z,283.15
2023-03-23T04:44:18.000Z,283.09
2023-03-23T04:45:44.000Z,283.09
2023-03-23T04:47:50.000Z,283.02
2023-03-23T04:49:17.000Z,283.02
2023-03-23T04:51:25.000Z,283.02
2023-03-23T04:52:51.000Z,283.02
2023-03-23T04:54:57.000Z,282.96
2023-03-23T04:56:24.000Z,282.96
2023-03-23T04:58:30.000Z,282.96
2023-03-23T04:59:57.000Z,283.02
2023-03-23T05:02:03.000Z,283.02
2023-03-23T05:03:39.000Z,283.02
2023-03-23T05:05:45.000Z,282.96
2023-03-23T05:07:11.000Z,282.96
2023-03-23T05:09:18.000Z,283.02
2023-03-23T05:10:44.000Z,283.02
2023-03-23T05:12:50.000Z,283.02
2023-03-23T05:14:17.000Z,283.02
2023-03-23T05:16:23.000Z,283.02
2023-03-23T05:19:14.000Z,283.02
2023-03-23T05:20:41.000Z,283.02
2023-03-23T05:22:47.000Z,283.02
2023-03-23T05:24:13.000Z,283.02
2023-03-23T05:26:19.000Z,283.09
2023-03-23T05:27:46.000Z,283.09
2023-03-23T05:29:52.000Z,282.96
2023-03-23T05:31:19.000Z,282.96
2023-03-23T05:33:25.000Z,282.9
2023-03-23T05:34:51.000Z,282.9
2023-03-23T05:36:57.000Z,282.96
2023-03-23T05:38:24.000Z,282.9
2023-03-23T05:40:30.000Z,282.9
2023-03-23T05:41:56.000Z,282.9
2023-03-23T05:44:02.000Z,282.9
2023-03-23T05:45:29.000Z,282.9
2023-03-23T05:47:35.000Z,282.9
2023-03-23T05:49:02.000Z,282.96
2023-03-23T05:51:08.000Z,282.96
2023-03-23T05:52:34.000Z,282.96
2023-03-23T05:54:40.000Z,283.02
2023-03-23T05:57:31.000Z,282.96
2023-03-23T05:58:58.000Z,283.02
2023-03-23T06:01:04.000Z,282.96
2023-03-23T06:02:31.000Z,283.02
2023-03-23T06:04:37.000Z,283.02
2023-03-23T06:06:03.000Z,283.02
2023-03-23T06:08:10.000Z,283.02
2023-03-23T06:09:36.000Z,283.02
2023-03-23T06:11:42.000Z,283.02
2023-03-23T06:13:09.000Z,283.09
2023-03-23T06:15:15.000Z,283.09
2023-03-23T06:16:41.000Z,283.09
2023-03-23T06:18:47.000Z,283.09
2023-03-23T06:20:14.000Z,283.15
2023-03-23T06:22:20.000Z,283.15
2023-03-23T06:23:46.000Z,283.15
2023-03-23T06:25:53.000Z,283.15
2023-03-23T06:27:29.000Z,283.15
2023-03-23T06:29:35.000Z,283.15
2023-03-23T06:31:01.000Z,283.15
2023-03-23T06:33:07.000Z,283.09
2023-03-23T06:35:59.000Z,283.15
2023-03-23T06:37:25.000Z,283.09
2023-03-23T06:39:31.000Z,283.15
2023-03-23T06:40:58.000Z,283.15
2023-03-23T06:43:08.000Z,283.15
2023-03-23T06:44:34.000Z,283.15
2023-03-23T06:46:40.000Z,283.15
2023-03-23T06:48:07.000Z,283.21
2023-03-23T06:50:13.000Z,283.21
2023-03-23T06:51:39.000Z,283.21
2023-03-23T06:53:46.000Z,283.27
2023-03-23T06:55:12.000Z,283.27
2023-03-23T06:57:18.000Z,283.27
2023-03-23T06:58:45.000Z,283.27
2023-03-23T07:00:51.000Z,283.27
2023-03-23T07:02:17.000Z,283.34
2023-03-23T07:04:23.000Z,283.34
2023-03-23T07:05:50.000Z,283.4
2023-03-23T07:07:56.000Z,283.4
2023-03-23T07:09:23.000Z,283.46
2023-03-23T07:11:45.000Z,283.52
2023-03-23T07:14:36.000Z,283.65
2023-03-23T07:16:03.000Z,283.65
2023-03-23T07:18:09.000Z,283.71
2023-03-23T07:19:35.000Z,283.71
2023-03-23T07:21:41.000Z,283.71
2023-03-23T07:23:08.000Z,283.71
2023-03-23T07:25:14.000Z,283.71
2023-03-23T07:26:40.000Z,283.71
2023-03-23T07:28:47.000Z,283.71
2023-03-23T07:30:13.000Z,283.77
2023-03-23T07:32:19.000Z,283.77
2023-03-23T07:33:46.000Z,283.77
2023-03-23T07:35:52.000Z,283.77
2023-03-23T07:37:19.000Z,283.84
2023-03-23T07:39:25.000Z,283.77
2023-03-23T07:40:51.000Z,283.77
2023-03-23T07:42:57.000Z,283.77
2023-03-23T07:44:24.000Z,283.77
2023-03-23T07:46:30.000Z,283.77
2023-03-23T07:47:57.000Z,283.77
2023-03-23T07:50:03.000Z,283.77
2023-03-23T07:52:55.000Z,283.71
2023-03-23T07:54:21.000Z,283.71
2023-03-23T07:56:27.000Z,283.71
2023-03-23T07:57:54.000Z,283.71
2023-03-23T08:00:00.000Z,283.71
2023-03-23T08:01:26.000Z,283.71
2023-03-23T08:03:32.000Z,283.77
2023-03-23T08:04:59.000Z,283.77
2023-03-23T08:07:05.000Z,283.71
2023-03-23T08:08:31.000Z,283.71
2023-03-23T08:10:38.000Z,283.71
2023-03-23T08:12:12.000Z,283.71
2023-03-23T08:14:18.000Z,283.71
2023-03-23T08:15:46.000Z,283.71
2023-03-23T08:17:52.000Z,283.77
2023-03-23T08:19:19.000Z,283.77
2023-03-23T08:21:25.000Z,283.77
2023-03-23T08:22:51.000Z,283.77
2023-03-23T08:24:57.000Z,283.77
2023-03-23T08:26:24.000Z,283.84
2023-03-23T08:28:30.000Z,283.84
2023-03-23T08:31:23.000Z,283.77
2023-03-23T08:32:49.000Z,283.84
2023-03-23T08:34:55.000Z,283.84
2023-03-23T08:36:22.000Z,283.84
2023-03-23T08:38:28.000Z,283.84
2023-03-23T08:39:55.000Z,283.9
2023-03-23T08:42:01.000Z,283.9
2023-03-23T08:43:27.000Z,283.9
2023-03-23T08:45:33.000Z,283.96
2023-03-23T08:47:00.000Z,283.96
2023-03-23T08:49:06.000Z,283.96
2023-03-23T08:50:33.000Z,284.02
2023-03-23T08:52:39.000Z,284.02
2023-03-23T08:54:05.000Z,284.02
2023-03-23T08:56:11.000Z,284.02
2023-03-23T08:57:38.000Z,284.09
2023-03-23T08:59:44.000Z,284.09
2023-03-23T09:01:10.000Z,284.09
2023-03-23T09:03:17.000Z,284.09
2023-03-23T09:04:43.000Z,284.09
2023-03-23T09:06:49.000Z,284.09
2023-03-23T09:09:41.000Z,284.15
2023-03-23T09:11:11.000Z,284.15
2023-03-23T09:13:17.000Z,284.21
2023-03-23T09:14:44.000Z,284.27
2023-03-23T09:16:50.000Z,284.27
2023-03-23T09:18:16.000Z,284.34
2023-03-23T09:20:23.000Z,284.34
2023-03-23T09:21:49.000Z,284.4
2023-03-23T09:23:55.000Z,284.46
2023-03-23T09:25:22.000Z,284.46
2023-03-23T09:27:28.000Z,284.52
2023-03-23T09:28:54.000Z,284.52
2023-03-23T09:31:00.000Z,284.46
2023-03-23T09:32:27.000Z,284.46
2023-03-23T09:34:33.000Z,284.46
2023-03-23T09:35:59.000Z,284.52
2023-03-23T09:38:06.000Z,284.52
2023-03-23T09:39:32.000Z,284.52
2023-03-23T09:41:38.000Z,284.59
2023-03-23T09:43:05.000Z,284.65
2023-03-23T09:45:11.000Z,284.65
2023-03-23T09:48:02.000Z,284.71
2023-03-23T09:49:29.000Z,284.71
2023-03-23T09:51:46.000Z,284.71
2023-03-23T09:53:12.000Z,284.71
2023-03-23T09:55:18.000Z,284.65
2023-03-23T09:56:45.000Z,284.65
2023-03-23T09:58:51.000Z,284.71
2023-03-23T10:00:17.000Z,284.77
2023-03-23T10:02:23.000Z,284.84
2023-03-23T10:03:50.000Z,284.77
2023-03-23T10:05:56.000Z,284.71
2023-03-23T10:07:23.000Z,284.71
2023-03-23T10:09:29.000Z,284.71
2023-03-23T10:10:55.000Z,284.71
2023-03-23T10:13:01.000Z,284.71
2023-03-23T10:14:28.000Z,284.71
2023-03-23T10:16:34.000Z,284.65
2023-03-23T10:18:01.000Z,284.71
2023-03-23T10:20:07.000Z,284.77
2023-03-23T10:21:33.000Z,284.71
2023-03-23T10:23:39.000Z,284.77
2023-03-23T10:26:31.000Z,284.71
2023-03-23T10:27:57.000Z,284.65
2023-03-23T10:30:03.000Z,284.65
2023-03-23T10:31:30.000Z,284.65
2023-03-23T10:33:36.000Z,284.59
2023-03-23T10:35:02.000Z,284.59
2023-03-23T10:37:08.000Z,284.52
2023-03-23T10:38:35.000Z,284.52
2023-03-23T10:40:41.000Z,284.46
2023-03-23T10:42:08.000Z,284.46
2023-03-23T10:44:14.000Z,284.46
2023-03-23T10:45:40.000Z,284.46
2023-03-23T10:48:04.000Z,284.52
2023-03-23T10:49:30.000Z,284.52
2023-03-23T10:51:36.000Z,284.52
2023-03-23T10:53:03.000Z,284.52
2023-03-23T10:55:10.000Z,284.52
2023-03-23T10:56:37.000Z,284.59
2023-03-23T10:59:02.000Z,284.59
2023-03-23T11:00:29.000Z,284.71
2023-03-23T11:02:35.000Z,284.71
2023-03-23T11:05:25.000Z,284.77
2023-03-23T11:06:52.000Z,284.77
2023-03-23T11:08:58.000Z,284.84
2023-03-23T11:10:24.000Z,284.84
2023-03-23T11:12:31.000Z,284.77
2023-03-23T11:13:57.000Z,284.77
2023-03-23T11:16:03.000Z,284.77
2023-03-23T11:17:30.000Z,284.84
2023-03-23T11:19:36.000Z,284.84
2023-03-23T11:21:03.000Z,284.9
2023-03-23T11:23:09.000Z,285.02
2023-03-23T11:24:35.000Z,285.15
2023-03-23T11:26:41.000Z,285.21
2023-03-23T11:28:22.000Z,285.27
2023-03-23T11:30:29.000Z,285.34
2023-03-23T11:31:55.000Z,285.46
2023-03-23T11:34:01.000Z,285.52
2023-03-23T11:35:30.000Z,285.59
2023-03-23T11:37:37.000Z,285.46
2023-03-23T11:39:03.000Z,285.4
2023-03-23T11:41:09.000Z,285.59
2023-03-23T11:44:01.000Z,285.77
2023-03-23T11:45:27.000Z,285.84
2023-03-23T11:47:33.000Z,285.84
2023-03-23T11:49:00.000Z,285.84
2023-03-23T11:51:07.000Z,285.77
2023-03-23T11:52:34.000Z,285.84
2023-03-23T11:54:40.000Z,285.71
2023-03-23T11:56:07.000Z,285.71
2023-03-23T11:58:13.000Z,285.59
2023-03-23T11:59:39.000Z,285.52
2023-03-23T12:01:45.000Z,285.46
2023-03-23T12:03:12.000Z,285.46
2023-03-23T12:05:18.000Z,285.4
2023-03-23T12:06:45.000Z,285.4
2023-03-23T12:08:51.000Z,285.34
2023-03-23T12:10:17.000Z,285.27
2023-03-23T12:12:39.000Z,285.21
2023-03-23T12:14:05.000Z,285.21
2023-03-23T12:16:12.000Z,285.21
2023-03-23T12:17:38.000Z,285.21
2023-03-23T12:19:44.000Z,285.15
2023-03-23T12:22:35.000Z,285.15
2023-03-23T12:24:02.000Z,285.15
2023-03-23T12:26:10.000Z,285.15
2023-03-23T12:27:36.000Z,285.21
2023-03-23T12:29:43.000Z,285.21
2023-03-23T12:31:09.000Z,285.21
2023-03-23T12:33:15.000Z,285.15
2023-03-23T12:34:42.000Z,285.15
2023-03-23T12:36:48.000Z,285.15
2023-03-23T12:38:14.000Z,285.21
2023-03-23T12:40:20.000Z,285.15
2023-03-23T12:41:47.000Z,285.15
2023-03-23T12:43:53.000Z,285.09
2023-03-23T12:45:19.000Z,285.02
2023-03-23T12:47:26.000Z,285.09
2023-03-23T12:48:52.000Z,285.02
2023-03-23T12:50:58.000Z,284.96
2023-03-23T12:52:25.000Z,284.96
2023-03-23T12:54:31.000Z,284.9
2023-03-23T12:55:57.000Z,284.96
2023-03-23T12:58:04.000Z,284.96
2023-03-23T13:00:55.000Z,284.96
2023-03-23T13:02:21.000Z,284.96
2023-03-23T13:04:27.000Z,284.96
2023-03-23T13:05:54.000Z,284.96
2023-03-23T13:08:00.000Z,285.02
2023-03-23T13:09:27.000Z,285.02
2023-03-23T13:11:33.000Z,284.96
2023-03-23T13:12:59.000Z,284.96
2023-03-23T13:15:05.000Z,284.96
2023-03-23T13:16:32.000Z,285.02
2023-03-23T13:18:38.000Z,285.02
2023-03-23T13:20:05.000Z,285.09
2023-03-23T13:22:11.000Z,285.15
2023-03-23T13:23:37.000Z,285.21
2023-03-23T13:25:43.000Z,285.21
2023-03-23T13:27:10.000Z,285.21
2023-03-23T13:29:16.000Z,285.27
2023-03-23T13:30:42.000Z,285.27
2023-03-23T13:32:48.000Z,285.34
2023-03-23T13:34:21.000Z,285.34
2023-03-23T13:36:27.000Z,285.27
2023-03-23T13:39:19.000Z,285.27
2023-03-23T13:40:45.000Z,285.34
2023-03-23T13:42:51.000Z,285.34
2023-03-23T13:44:18.000Z,285.34
2023-03-23T13:46:24.000Z,285.34
2023-03-23T13:47:51.000Z,285.4
2023-03-23T13:49:57.000Z,285.4
2023-03-23T13:51:23.000Z,285.46
2023-03-23T13:53:29.000Z,285.52
2023-03-23T13:54:56.000Z,285.59
2023-03-23T13:57:02.000Z,285.59
2023-03-23T13:58:29.000Z,285.65
2023-03-23T14:00:35.000Z,285.65
2023-03-23T14:02:01.000Z,285.65
2023-03-23T14:04:07.000Z,285.59
2023-03-23T14:05:34.000Z,285.52
2023-03-23T14:07:40.000Z,285.65
2023-03-23T14:09:06.000Z,285.71
2023-03-23T14:11:12.000Z,285.77
2023-03-23T14:12:39.000Z,285.84
2023-03-23T14:14:45.000Z,285.84
2023-03-23T14:17:36.000Z,285.77
2023-03-23T14:19:03.000Z,285.77
2023-03-23T14:21:09.000Z,285.77
2023-03-23T14:22:36.000Z,285.77
2023-03-23T14:24:42.000Z,285.65
2023-03-23T14:26:09.000Z,285.71
2023-03-23T14:28:15.000Z,285.71
2023-03-23T14:29:41.000Z,285.77
2023-03-23T14:31:47.000Z,285.84
2023-03-23T14:33:14.000Z,285.84
2023-03-23T14:35:20.000Z,285.9
2023-03-23T14:36:46.000Z,285.9
2023-03-23T14:38:53.000Z,285.96
2023-03-23T14:40:19.000Z,285.9
2023-03-23T14:42:25.000Z,285.9
2023-03-23T14:43:52.000Z,286.02
2023-03-23T14:45:58.000Z,286.02
2023-03-23T14:47:25.000Z,286.02
2023-03-23T14:49:31.000Z,285.96
2023-03-23T14:50:57.000Z,286.02
2023-03-23T14:53:03.000Z,286.09
2023-03-23T14:55:55.000Z,286.02
2023-03-23T14:57:21.000Z,286.09
2023-03-23T14:59:27.000Z,286.15
2023-03-23T15:00:54.000Z,286.09
2023-03-23T15:03:00.000Z,286.09
2023-03-23T15:04:27.000Z,286.15
2023-03-23T15:06:33.000Z,286.09
2023-03-23T15:07:59.000Z,286.15
2023-03-23T15:10:05.000Z,286.09
2023-03-23T15:11:32.000Z,286.09
2023-03-23T15:13:38.000Z,286.21
2023-03-23T15:15:05.000Z,286.21
2023-03-23T15:17:11.000Z,286.21
2023-03-23T15:18:37.000Z,286.21
2023-03-23T15:20:43.000Z,286.15
2023-03-23T15:22:10.000Z,286.15
2023-03-23T15:24:16.000Z,286.21
2023-03-23T15:25:42.000Z,286.27
2023-03-23T15:27:49.000Z,286.52
2023-03-23T15:29:15.000Z,286.52
2023-03-23T15:31:30.000Z,286.34
2023-03-23T15:34:22.000Z,286.27
2023-03-23T15:35:48.000Z,286.27
2023-03-23T15:37:54.000Z,286.34
2023-03-23T15:39:27.000Z,286.4
2023-03-23T15:41:34.000Z,286.4
2023-03-23T15:43:00.000Z,286.4
2023-03-23T15:45:06.000Z,286.34
2023-03-23T15:46:33.000Z,286.27
2023-03-23T15:48:39.000Z,286.34
2023-03-23T15:50:06.000Z,286.27
2023-03-23T15:52:12.000Z,286.21
2023-03-23T15:53:38.000Z,286.21
2023-03-23T15:55:44.000Z,286.21
2023-03-23T15:57:11.000Z,286.21
2023-03-23T15:59:17.000Z,286.15
2023-03-23T16:00:43.000Z,286.15
2023-03-23T16:02:49.000Z,286.15
2023-03-23T16:04:16.000Z,286.15
2023-03-23T16:06:22.000Z,286.09
2023-03-23T16:07:50.000Z,286.09
2023-03-23T16:09:56.000Z,286.02
2023-03-23T16:12:47.000Z,286.02
2023-03-23T16:14:14.000Z,286.02
2023-03-23T16:16:20.000Z,286.02
2023-03-23T16:17:46.000Z,286.02
2023-03-23T16:19:52.000Z,285.96
2023-03-23T16:21:19.000Z,285.96
2023-03-23T16:23:25.000Z,285.96
2023-03-23T16:24:52.000Z,285.96
2023-03-23T16:26:58.000Z,285.96
2023-03-23T16:28:24.000Z,285.96
2023-03-23T16:30:30.000Z,285.9
2023-03-23T16:31:57.000Z,285.9
2023-03-23T16:34:03.000Z,285.9
2023-03-23T16:35:30.000Z,285.9
2023-03-23T16:37:36.000Z,285.84
2023-03-23T16:39:02.000Z,285.84
2023-03-23T16:41:08.000Z,285.77
2023-03-23T16:42:35.000Z,285.77
2023-03-23T16:44:41.000Z,285.77
2023-03-23T16:46:07.000Z,285.71
2023-03-23T16:48:14.000Z,285.71
2023-03-23T16:51:05.000Z,285.65
2023-03-23T16:52:31.000Z,285.59
2023-03-23T16:54:38.000Z,285.59
2023-03-23T16:56:04.000Z,285.59
2023-03-23T16:58:10.000Z,285.59
2023-03-23T16:59:42.000Z,285.52
2023-03-23T17:01:48.000Z,285.52
2023-03-23T17:03:15.000Z,285.52
2023-03-23T17:05:21.000Z,285.46
2023-03-23T17:06:47.000Z,285.46
2023-03-23T17:08:54.000Z,285.46
2023-03-23T17:10:20.000Z,285.4
2023-03-23T17:12:26.000Z,285.4
2023-03-23T17:13:53.000Z,285.4
2023-03-23T17:15:59.000Z,285.34
2023-03-23T17:17:26.000Z,285.34
2023-03-23T17:19:32.000Z,285.27
2023-03-23T17:20:58.000Z,285.27
2023-03-23T17:23:04.000Z,285.27
2023-03-23T17:24:31.000Z,285.21
2023-03-23T17:26:37.000Z,285.15
2023-03-23T17:29:28.000Z,285.02
2023-03-23T17:30:55.000Z,285.02
2023-03-23T17:33:01.000Z,285.02
2023-03-23T17:34:28.000Z,285.02
2023-03-23T17:36:34.000Z,284.96
2023-03-23T17:38:00.000Z,284.96
2023-03-23T17:40:06.000Z,284.9
2023-03-23T17:41:33.000Z,284.96
2023-03-23T17:43:39.000Z,284.9
2023-03-23T17:45:06.000Z,284.84
2023-03-23T17:47:12.000Z,284.84
2023-03-23T17:48:38.000Z,284.84
2023-03-23T17:50:44.000Z,284.77
2023-03-23T17:52:11.000Z,284.71
2023-03-23T17:54:17.000Z,284.71
2023-03-23T17:55:43.000Z,284.71
2023-03-23T17:57:50.000Z,284.71
2023-03-23T17:59:16.000Z,284.65
2023-03-23T18:01:22.000Z,284.71
2023-03-23T18:02:49.000Z,284.65
2023-03-23T18:04:55.000Z,284.65
2023-03-23T18:07:47.000Z,284.59
2023-03-23T18:09:13.000Z,284.59
2023-03-23T18:11:19.000Z,284.59
2023-03-23T18:12:46.000Z,284.59
2023-03-23T18:14:52.000Z,284.59
2023-03-23T18:16:18.000Z,284.59
2023-03-23T18:18:24.000Z,284.52
2023-03-23T18:19:51.000Z,284.46
2023-03-23T18:21:57.000Z,284.46
2023-03-23T18:23:24.000Z,284.46
2023-03-23T18:25:30.000Z,284.46
2023-03-23T18:26:56.000Z,284.46
2023-03-23T18:29:02.000Z,284.4
2023-03-23T18:30:29.000Z,284.46
2023-03-23T18:32:35.000Z,284.4
2023-03-23T18:34:01.000Z,284.4
2023-03-23T18:36:08.000Z,284.34
2023-03-23T18:37:34.000Z,284.4
2023-03-23T18:39:41.000Z,284.4
2023-03-23T18:41:07.000Z,284.4
2023-03-23T18:43:13.000Z,284.4
2023-03-23T18:46:04.000Z,284.34
2023-03-23T18:47:31.000Z,284.4
2023-03-23T18:49:37.000Z,284.4
2023-03-23T18:51:03.000Z,284.4
2023-03-23T18:53:09.000Z,284.4
2023-03-23T18:54:36.000Z,284.4
2023-03-23T18:56:42.000Z,284.34
2023-03-23T18:58:09.000Z,284.34
2023-03-23T19:00:15.000Z,284.34
2023-03-23T19:01:41.000Z,284.34
2023-03-23T19:03:48.000Z,284.27
2023-03-23T19:05:14.000Z,284.27
2023-03-23T19:07:20.000Z,284.27
2023-03-23T19:08:47.000Z,284.27
2023-03-23T19:10:53.000Z,284.27
2023-03-23T19:12:19.000Z,284.34
2023-03-23T19:14:26.000Z,284.34
2023-03-23T19:15:52.000Z,284.34
2023-03-23T19:17:58.000Z,284.27
2023-03-23T19:19:25.000Z,284.27
2023-03-23T19:21:31.000Z,284.27
2023-03-23T19:24:23.000Z,284.27
2023-03-23T19:25:49.000Z,284.27
2023-03-23T19:27:55.000Z,284.27
2023-03-23T19:30:28.000Z,284.27
2023-03-23T19:32:34.000Z,284.21
2023-03-23T19:34:00.000Z,284.27
2023-03-23T19:36:07.000Z,284.21
2023-03-23T19:37:37.000Z,284.21
2023-03-23T19:39:44.000Z,284.21
2023-03-23T19:41:10.000Z,284.21
2023-03-23T19:43:16.000Z,284.15
2023-03-23T19:44:43.000Z,284.15
2023-03-23T19:46:49.000Z,284.15
2023-03-23T19:48:16.000Z,284.15
2023-03-23T19:50:22.000Z,284.15
2023-03-23T19:51:48.000Z,284.15
2023-03-23T19:55:39.000Z,284.15
2023-03-23T19:57:45.000Z,284.15
2023-03-23T19:59:12.000Z,284.09
2023-03-23T20:01:18.000Z,284.09
2023-03-23T20:04:09.000Z,284.09
2023-03-23T20:05:36.000Z,284.09
2023-03-23T20:07:42.000Z,284.02
2023-03-23T20:09:15.000Z,284.09
2023-03-23T20:11:22.000Z,284.09
2023-03-23T20:12:49.000Z,284.09
2023-03-23T20:14:55.000Z,284.09
2023-03-23T20:16:21.000Z,284.02
2023-03-23T20:18:27.000Z,283.96
2023-03-23T20:19:54.000Z,283.96
2023-03-23T20:22:00.000Z,283.96
2023-03-23T20:23:27.000Z,283.96
2023-03-23T20:25:33.000Z,283.9
2023-03-23T20:27:00.000Z,283.9
2023-03-23T20:29:07.000Z,283.9
2023-03-23T20:30:33.000Z,283.84
2023-03-23T20:32:40.000Z,283.84
2023-03-23T20:34:07.000Z,283.84
2023-03-23T20:36:13.000Z,283.84
2023-03-23T20:37:40.000Z,283.84
2023-03-23T20:39:46.000Z,283.84
2023-03-23T20:42:37.000Z,283.77
2023-03-23T20:44:03.000Z,283.77
2023-03-23T20:46:09.000Z,283.77
2023-03-23T20:47:36.000Z,283.71
2023-03-23T20:49:42.000Z,283.71
2023-03-23T20:51:18.000Z,283.77
2023-03-23T20:53:24.000Z,283.77
2023-03-23T20:54:51.000Z,283.77
2023-03-23T20:56:57.000Z,283.77
2023-03-23T20:58:23.000Z,283.84
2023-03-23T21:00:29.000Z,283.84
2023-03-23T21:01:56.000Z,283.84
2023-03-23T21:04:02.000Z,283.84
2023-03-23T21:05:29.000Z,283.84
2023-03-23T21:07:35.000Z,283.84
2023-03-23T21:09:01.000Z,283.9
2023-03-23T21:11:07.000Z,283.9
2023-03-23T21:12:34.000Z,283.96
2023-03-23T21:14:40.000Z,283.96
2023-03-23T21:16:07.000Z,283.96
2023-03-23T21:18:13.000Z,283.96
2023-03-23T21:21:04.000Z,283.96
2023-03-23T21:22:33.000Z,283.96
2023-03-23T21:24:39.000Z,283.96
2023-03-23T21:26:06.000Z,283.9
2023-03-23T21:28:12.000Z,283.96
2023-03-23T21:29:39.000Z,283.96
2023-03-23T21:31:45.000Z,283.96
2023-03-23T21:33:22.000Z,283.96
2023-03-23T21:35:28.000Z,284.02
2023-03-23T21:36:54.000Z,284.02
2023-03-23T21:39:00.000Z,284.02
2023-03-23T21:42:33.000Z,284.02
2023-03-23T21:43:59.000Z,284.02
2023-03-23T21:46:05.000Z,283.96
2023-03-23T21:47:32.000Z,283.96
2023-03-23T21:49:38.000Z,283.96
2023-03-23T21:51:05.000Z,283.96
2023-03-23T21:53:12.000Z,283.96
2023-03-23T21:54:38.000Z,284.02
2023-03-23T21:56:44.000Z,283.96
2023-03-23T21:59:36.000Z,283.9
2023-03-23T22:01:02.000Z,283.9
2023-03-23T22:03:08.000Z,283.9
2023-03-23T22:04:35.000Z,283.84
2023-03-23T22:06:41.000Z,283.9
2023-03-23T22:08:07.000Z,283.9
2023-03-23T22:10:13.000Z,283.9
2023-03-23T22:11:40.000Z,283.9
2023-03-23T22:13:46.000Z,283.9
2023-03-23T22:15:13.000Z,283.84
2023-03-23T22:17:19.000Z,283.84
2023-03-23T22:18:45.000Z,283.9
2023-03-23T22:20:51.000Z,283.9
2023-03-23T22:22:18.000Z,283.96
2023-03-23T22:24:24.000Z,283.96
2023-03-23T22:25:50.000Z,283.96
2023-03-23T22:27:56.000Z,283.96
2023-03-23T22:29:23.000Z,283.96
2023-03-23T22:31:29.000Z,283.96
2023-03-23T22:32:55.000Z,283.96
2023-03-23T22:35:02.000Z,283.96
2023-03-23T22:37:53.000Z,283.96
2023-03-23T22:39:19.000Z,283.96
2023-03-23T22:41:25.000Z,283.96
2023-03-23T22:42:52.000Z,283.96
2023-03-23T22:44:58.000Z,283.96
2023-03-23T22:46:25.000Z,283.96
2023-03-23T22:48:31.000Z,283.96
2023-03-23T22:49:57.000Z,283.96
2023-03-23T22:52:03.000Z,283.96
2023-03-23T22:53:30.000Z,283.96
2023-03-23T22:55:36.000Z,283.9
2023-03-23T22:57:03.000Z,283.96
2023-03-23T22:59:09.000Z,283.96